sensor_id;sensor_type;location;lat;lon;timestamp;temperature;humidity
17762;DHT22;9005;48.838;10.112;2023-07-02T00:01:35;15.60;99.90
17762;DHT22;9005;48.838;10.112;2023-07-02T00:04:02;15.40;99.90
17762;DHT22;9005;48.838;10.112;2023-07-02T00:06:29;15.30;99.90
17762;DHT22;9005;48.838;10.112;2023-07-02T00:08:58;15.20;99.90
17762;DHT22;9005;48.838;10.112;2023-07-02T00:11:24;15.10;99.90
17762;DHT22;9005;48.838;10.112;2023-07-02T00:13:51;15.00;99.90
17762;DHT22;9005;48.838;10.112;2023-07-02T00:16:19;14.80;99.90
17762;DHT22;9005;48.838;10.112;2023-07-02T00:18:46;14.80;99.90
17762;DHT22;9005;48.838;10.112;2023-07-02T00:21:18;14.70;99.90
17762;DHT22;9005;48.838;10.112;2023-07-02T00:23:46;14.70;99.90
17762;DHT22;9005;48.838;10.112;2023-07-02T00:26:13;14.60;99.90
17762;DHT22;9005;48.838;10.112;2023-07-02T00:28:40;14.60;99.90
17762;DHT22;9005;48.838;10.112;2023-07-02T00:31:06;14.50;99.90
17762;DHT22;9005;48.838;10.112;2023-07-02T00:33:35;14.50;99.90
17762;DHT22;9005;48.838;10.112;2023-07-02T00:36:02;14.50;99.90
17762;DHT22;9005;48.838;10.112;2023-07-02T00:38:29;14.50;99.90
17762;DHT22;9005;48.838;10.112;2023-07-02T00:40:55;14.40;99.90
17762;DHT22;9005;48.838;10.112;2023-07-02T00:43:23;14.50;99.90
17762;DHT22;9005;48.838;10.112;2023-07-02T00:45:49;14.40;99.90
17762;DHT22;9005;48.838;10.112;2023-07-02T00:48:16;14.80;99.90
17762;DHT22;9005;48.838;10.112;2023-07-02T00:50:45;14.40;99.90
17762;DHT22;9005;48.838;10.112;2023-07-02T00:53:11;14.40;99.90
17762;DHT22;9005;48.838;10.112;2023-07-02T00:55:39;14.40;99.90
17762;DHT22;9005;48.838;10.112;2023-07-02T00:58:05;14.40;99.90
17762;DHT22;9005;48.838;10.112;2023-07-02T01:00:33;14.40;99.90
17762;DHT22;9005;48.838;10.112;2023-07-02T01:03:00;14.40;99.90
17762;DHT22;9005;48.838;10.112;2023-07-02T01:05:28;14.40;99.90
17762;DHT22;9005;48.838;10.112;2023-07-02T01:08:02;14.30;99.90
17762;DHT22;9005;48.838;10.112;2023-07-02T01:10:28;14.30;99.90
17762;DHT22;9005;48.838;10.112;2023-07-02T01:12:57;14.30;99.90
17762;DHT22;9005;48.838;10.112;2023-07-02T01:15:24;14.20;99.90
17762;DHT22;9005;48.838;10.112;2023-07-02T01:17:51;14.20;99.90
17762;DHT22;9005;48.838;10.112;2023-07-02T01:20:20;14.20;99.90
17762;DHT22;9005;48.838;10.112;2023-07-02T01:22:48;14.10;99.90
17762;DHT22;9005;48.838;10.112;2023-07-02T01:25:17;14.10;99.90
17762;DHT22;9005;48.838;10.112;2023-07-02T01:27:44;14.10;99.90
17762;DHT22;9005;48.838;10.112;2023-07-02T01:30:11;14.10;99.90
17762;DHT22;9005;48.838;10.112;2023-07-02T01:32:38;14.00;99.90
17762;DHT22;9005;48.838;10.112;2023-07-02T01:35:06;14.00;99.90
17762;DHT22;9005;48.838;10.112;2023-07-02T01:37:34;14.10;99.90
17762;DHT22;9005;48.838;10.112;2023-07-02T01:40:03;14.10;99.90
17762;DHT22;9005;48.838;10.112;2023-07-02T01:42:32;14.10;99.90
17762;DHT22;9005;48.838;10.112;2023-07-02T01:44:59;14.10;99.90
17762;DHT22;9005;48.838;10.112;2023-07-02T01:47:25;14.00;99.90
17762;DHT22;9005;48.838;10.112;2023-07-02T01:49:52;14.00;99.90
17762;DHT22;9005;48.838;10.112;2023-07-02T01:52:19;14.00;99.90
17762;DHT22;9005;48.838;10.112;2023-07-02T01:54:47;14.00;99.90
17762;DHT22;9005;48.838;10.112;2023-07-02T01:57:14;14.00;99.90
17762;DHT22;9005;48.838;10.112;2023-07-02T01:59:41;14.00;99.90
17762;DHT22;9005;48.838;10.112;2023-07-02T02:02:08;14.00;99.90
17762;DHT22;9005;48.838;10.112;2023-07-02T02:04:34;13.90;99.90
17762;DHT22;9005;48.838;10.112;2023-07-02T02:07:01;13.90;99.90
17762;DHT22;9005;48.838;10.112;2023-07-02T02:09:28;13.90;99.90
17762;DHT22;9005;48.838;10.112;2023-07-02T02:11:59;13.90;99.90
17762;DHT22;9005;48.838;10.112;2023-07-02T02:14:25;13.90;99.90
17762;DHT22;9005;48.838;10.112;2023-07-02T02:16:52;13.90;99.90
17762;DHT22;9005;48.838;10.112;2023-07-02T02:19:19;13.90;99.90
17762;DHT22;9005;48.838;10.112;2023-07-02T02:21:45;13.90;99.90
17762;DHT22;9005;48.838;10.112;2023-07-02T02:24:12;13.90;99.90
17762;DHT22;9005;48.838;10.112;2023-07-02T02:26:39;14.00;99.90
17762;DHT22;9005;48.838;10.112;2023-07-02T02:29:08;13.90;99.90
17762;DHT22;9005;48.838;10.112;2023-07-02T02:31:34;13.90;99.90
17762;DHT22;9005;48.838;10.112;2023-07-02T02:34:01;13.90;99.90
17762;DHT22;9005;48.838;10.112;2023-07-02T02:36:28;13.90;99.90
17762;DHT22;9005;48.838;10.112;2023-07-02T02:38:54;13.90;99.90
17762;DHT22;9005;48.838;10.112;2023-07-02T02:41:21;13.90;99.90
17762;DHT22;9005;48.838;10.112;2023-07-02T02:43:48;13.90;99.90
17762;DHT22;9005;48.838;10.112;2023-07-02T02:46:21;13.90;99.90
17762;DHT22;9005;48.838;10.112;2023-07-02T02:48:49;13.80;99.90
17762;DHT22;9005;48.838;10.112;2023-07-02T02:51:17;13.80;99.90
17762;DHT22;9005;48.838;10.112;2023-07-02T03:01:07;13.90;99.90
17762;DHT22;9005;48.838;10.112;2023-07-02T03:03:38;13.80;99.90
17762;DHT22;9005;48.838;10.112;2023-07-02T03:06:05;13.80;99.90
17762;DHT22;9005;48.838;10.112;2023-07-02T03:08:31;13.70;99.90
17762;DHT22;9005;48.838;10.112;2023-07-02T03:10:58;13.70;99.90
17762;DHT22;9005;48.838;10.112;2023-07-02T03:13:25;13.70;99.90
17762;DHT22;9005;48.838;10.112;2023-07-02T03:15:51;13.70;99.90
17762;DHT22;9005;48.838;10.112;2023-07-02T03:18:18;13.70;99.90
17762;DHT22;9005;48.838;10.112;2023-07-02T03:20:46;13.60;99.90
17762;DHT22;9005;48.838;10.112;2023-07-02T03:23:13;13.70;99.90
17762;DHT22;9005;48.838;10.112;2023-07-02T03:25:40;13.70;99.90
17762;DHT22;9005;48.838;10.112;2023-07-02T03:28:06;13.70;99.90
17762;DHT22;9005;48.838;10.112;2023-07-02T03:30:33;13.70;99.90
17762;DHT22;9005;48.838;10.112;2023-07-02T03:33:00;13.80;99.90
17762;DHT22;9005;48.838;10.112;2023-07-02T03:35:26;13.80;99.90
17762;DHT22;9005;48.838;10.112;2023-07-02T03:37:54;13.80;99.90
17762;DHT22;9005;48.838;10.112;2023-07-02T03:40:23;13.80;99.90
17762;DHT22;9005;48.838;10.112;2023-07-02T03:42:49;13.80;99.90
17762;DHT22;9005;48.838;10.112;2023-07-02T03:45:16;13.80;99.90
17762;DHT22;9005;48.838;10.112;2023-07-02T03:47:43;13.90;99.90
17762;DHT22;9005;48.838;10.112;2023-07-02T03:50:09;13.90;99.90
17762;DHT22;9005;48.838;10.112;2023-07-02T03:52:36;13.90;99.90
17762;DHT22;9005;48.838;10.112;2023-07-02T03:55:05;13.90;99.90
17762;DHT22;9005;48.838;10.112;2023-07-02T03:59:59;14.00;99.90
17762;DHT22;9005;48.838;10.112;2023-07-02T04:02:26;14.00;99.90
17762;DHT22;9005;48.838;10.112;2023-07-02T04:04:53;14.00;99.90
17762;DHT22;9005;48.838;10.112;2023-07-02T04:07:19;14.00;99.90
17762;DHT22;9005;48.838;10.112;2023-07-02T04:09:46;14.00;99.90
17762;DHT22;9005;48.838;10.112;2023-07-02T04:12:14;14.00;99.90
17762;DHT22;9005;48.838;10.112;2023-07-02T04:14:41;14.00;99.90
17762;DHT22;9005;48.838;10.112;2023-07-02T04:17:08;14.10;99.90
17762;DHT22;9005;48.838;10.112;2023-07-02T04:19:34;14.10;99.90
17762;DHT22;9005;48.838;10.112;2023-07-02T04:22:01;14.10;99.90
17762;DHT22;9005;48.838;10.112;2023-07-02T04:24:28;14.10;99.90
17762;DHT22;9005;48.838;10.112;2023-07-02T04:26:55;14.20;99.90
17762;DHT22;9005;48.838;10.112;2023-07-02T04:29:23;14.10;99.90
17762;DHT22;9005;48.838;10.112;2023-07-02T04:31:50;14.10;99.90
17762;DHT22;9005;48.838;10.112;2023-07-02T04:34:16;14.10;99.90
17762;DHT22;9005;48.838;10.112;2023-07-02T04:36:47;14.20;99.90
17762;DHT22;9005;48.838;10.112;2023-07-02T04:39:13;14.20;99.90
17762;DHT22;9005;48.838;10.112;2023-07-02T04:41:40;14.10;99.90
17762;DHT22;9005;48.838;10.112;2023-07-02T04:44:07;14.00;99.90
17762;DHT22;9005;48.838;10.112;2023-07-02T04:46:36;14.00;99.90
17762;DHT22;9005;48.838;10.112;2023-07-02T04:49:02;13.90;99.90
17762;DHT22;9005;48.838;10.112;2023-07-02T04:51:29;13.90;99.90
17762;DHT22;9005;48.838;10.112;2023-07-02T04:53:56;13.80;99.90
17762;DHT22;9005;48.838;10.112;2023-07-02T04:56:23;13.70;99.90
17762;DHT22;9005;48.838;10.112;2023-07-02T04:58:49;13.60;99.90
17762;DHT22;9005;48.838;10.112;2023-07-02T05:01:16;13.50;99.90
17762;DHT22;9005;48.838;10.112;2023-07-02T05:03:44;13.50;99.90
17762;DHT22;9005;48.838;10.112;2023-07-02T05:06:11;13.50;99.90
17762;DHT22;9005;48.838;10.112;2023-07-02T05:08:37;13.50;99.90
17762;DHT22;9005;48.838;10.112;2023-07-02T05:11:04;13.40;99.90
17762;DHT22;9005;48.838;10.112;2023-07-02T05:13:31;13.50;99.90
17762;DHT22;9005;48.838;10.112;2023-07-02T05:15:57;13.40;99.90
17762;DHT22;9005;48.838;10.112;2023-07-02T05:18:24;13.40;99.90
17762;DHT22;9005;48.838;10.112;2023-07-02T05:20:52;13.40;99.90
17762;DHT22;9005;48.838;10.112;2023-07-02T05:23:19;13.30;99.90
17762;DHT22;9005;48.838;10.112;2023-07-02T05:25:46;13.30;99.90
17762;DHT22;9005;48.838;10.112;2023-07-02T05:28:13;13.30;99.90
17762;DHT22;9005;48.838;10.112;2023-07-02T05:30:39;13.30;99.90
17762;DHT22;9005;48.838;10.112;2023-07-02T05:33:06;13.30;99.90
17762;DHT22;9005;48.838;10.112;2023-07-02T05:35:33;13.30;99.90
17762;DHT22;9005;48.838;10.112;2023-07-02T05:38:01;13.20;99.90
17762;DHT22;9005;48.838;10.112;2023-07-02T05:40:27;13.20;99.90
17762;DHT22;9005;48.838;10.112;2023-07-02T05:42:54;13.30;99.90
17762;DHT22;9005;48.838;10.112;2023-07-02T05:45:21;13.20;99.90
17762;DHT22;9005;48.838;10.112;2023-07-02T05:47:49;13.20;99.90
17762;DHT22;9005;48.838;10.112;2023-07-02T05:50:15;13.10;99.90
17762;DHT22;9005;48.838;10.112;2023-07-02T05:52:42;13.10;99.90
17762;DHT22;9005;48.838;10.112;2023-07-02T05:55:11;13.10;99.90
17762;DHT22;9005;48.838;10.112;2023-07-02T05:57:38;13.00;99.90
17762;DHT22;9005;48.838;10.112;2023-07-02T06:00:05;13.10;99.90
17762;DHT22;9005;48.838;10.112;2023-07-02T06:02:32;13.10;99.90
17762;DHT22;9005;48.838;10.112;2023-07-02T06:04:59;13.10;99.90
17762;DHT22;9005;48.838;10.112;2023-07-02T06:07:27;13.10;99.90
17762;DHT22;9005;48.838;10.112;2023-07-02T06:09:54;13.20;99.90
17762;DHT22;9005;48.838;10.112;2023-07-02T06:12:22;13.20;99.90
17762;DHT22;9005;48.838;10.112;2023-07-02T06:14:49;13.20;99.90
17762;DHT22;9005;48.838;10.112;2023-07-02T06:17:16;13.30;99.90
17762;DHT22;9005;48.838;10.112;2023-07-02T06:19:44;13.40;99.90
17762;DHT22;9005;48.838;10.112;2023-07-02T06:22:11;13.40;99.90
17762;DHT22;9005;48.838;10.112;2023-07-02T06:24:37;13.40;99.90
17762;DHT22;9005;48.838;10.112;2023-07-02T06:27:04;13.40;99.90
17762;DHT22;9005;48.838;10.112;2023-07-02T06:29:32;13.40;99.90
17762;DHT22;9005;48.838;10.112;2023-07-02T06:31:59;13.50;99.90
17762;DHT22;9005;48.838;10.112;2023-07-02T06:36:53;13.40;99.90
17762;DHT22;9005;48.838;10.112;2023-07-02T06:39:20;13.40;99.90
17762;DHT22;9005;48.838;10.112;2023-07-02T06:41:47;13.50;99.90
17762;DHT22;9005;48.838;10.112;2023-07-02T06:44:14;13.50;99.90
17762;DHT22;9005;48.838;10.112;2023-07-02T06:46:42;13.60;99.90
17762;DHT22;9005;48.838;10.112;2023-07-02T06:49:11;13.70;99.90
17762;DHT22;9005;48.838;10.112;2023-07-02T06:51:38;13.80;99.90
17762;DHT22;9005;48.838;10.112;2023-07-02T06:54:05;13.90;99.90
17762;DHT22;9005;48.838;10.112;2023-07-02T07:01:26;13.90;99.90
17762;DHT22;9005;48.838;10.112;2023-07-02T07:03:54;13.90;99.90
17762;DHT22;9005;48.838;10.112;2023-07-02T07:06:21;14.00;99.90
17762;DHT22;9005;48.838;10.112;2023-07-02T07:08:48;13.70;99.90
17762;DHT22;9005;48.838;10.112;2023-07-02T07:11:14;14.10;99.90
17762;DHT22;9005;48.838;10.112;2023-07-02T07:13:41;14.10;99.90
17762;DHT22;9005;48.838;10.112;2023-07-02T07:16:09;14.00;99.90
17762;DHT22;9005;48.838;10.112;2023-07-02T07:18:35;14.10;99.90
17762;DHT22;9005;48.838;10.112;2023-07-02T07:21:04;14.20;99.90
17762;DHT22;9005;48.838;10.112;2023-07-02T07:23:30;14.30;99.90
17762;DHT22;9005;48.838;10.112;2023-07-02T07:25:57;14.40;99.90
17762;DHT22;9005;48.838;10.112;2023-07-02T07:28:24;14.50;99.90
17762;DHT22;9005;48.838;10.112;2023-07-02T07:30:50;14.60;99.90
17762;DHT22;9005;48.838;10.112;2023-07-02T07:57:54;15.40;99.90
17762;DHT22;9005;48.838;10.112;2023-07-02T08:00:21;15.40;99.90
17762;DHT22;9005;48.838;10.112;2023-07-02T08:05:17;15.60;99.90
17762;DHT22;9005;48.838;10.112;2023-07-02T08:07:44;15.60;99.90
17762;DHT22;9005;48.838;10.112;2023-07-02T08:10:11;15.70;99.90
17762;DHT22;9005;48.838;10.112;2023-07-02T08:15:07;15.90;99.90
17762;DHT22;9005;48.838;10.112;2023-07-02T08:17:34;15.90;99.90
17762;DHT22;9005;48.838;10.112;2023-07-02T08:20:01;15.90;99.90
17762;DHT22;9005;48.838;10.112;2023-07-02T08:22:29;16.00;99.90
17762;DHT22;9005;48.838;10.112;2023-07-02T08:24:56;16.00;99.90
17762;DHT22;9005;48.838;10.112;2023-07-02T08:27:23;16.10;99.90
17762;DHT22;9005;48.838;10.112;2023-07-02T08:29:52;16.10;99.90
17762;DHT22;9005;48.838;10.112;2023-07-02T08:32:19;16.10;99.90
17762;DHT22;9005;48.838;10.112;2023-07-02T08:34:45;16.20;99.90
17762;DHT22;9005;48.838;10.112;2023-07-02T08:37:12;16.20;99.90
17762;DHT22;9005;48.838;10.112;2023-07-02T08:39:40;16.40;99.90
17762;DHT22;9005;48.838;10.112;2023-07-02T08:42:07;16.50;99.90
17762;DHT22;9005;48.838;10.112;2023-07-02T08:44:34;16.60;99.90
17762;DHT22;9005;48.838;10.112;2023-07-02T08:47:02;16.60;99.90
17762;DHT22;9005;48.838;10.112;2023-07-02T08:49:29;16.80;99.90
17762;DHT22;9005;48.838;10.112;2023-07-02T08:51:56;16.80;99.90
17762;DHT22;9005;48.838;10.112;2023-07-02T08:54:22;16.80;99.90
17762;DHT22;9005;48.838;10.112;2023-07-02T08:56:49;16.80;99.90
17762;DHT22;9005;48.838;10.112;2023-07-02T08:59:16;16.90;99.90
17762;DHT22;9005;48.838;10.112;2023-07-02T09:01:46;17.00;99.90
17762;DHT22;9005;48.838;10.112;2023-07-02T09:04:22;17.00;99.90
17762;DHT22;9005;48.838;10.112;2023-07-02T09:07:03;17.10;99.90
17762;DHT22;9005;48.838;10.112;2023-07-02T09:09:30;17.10;99.90
17762;DHT22;9005;48.838;10.112;2023-07-02T09:11:56;17.20;99.90
17762;DHT22;9005;48.838;10.112;2023-07-02T09:14:24;17.20;99.90
17762;DHT22;9005;48.838;10.112;2023-07-02T09:17:04;17.10;99.90
17762;DHT22;9005;48.838;10.112;2023-07-02T09:19:33;17.20;99.90
17762;DHT22;9005;48.838;10.112;2023-07-02T09:22:00;17.30;99.90
17762;DHT22;9005;48.838;10.112;2023-07-02T09:24:29;17.30;99.90
17762;DHT22;9005;48.838;10.112;2023-07-02T09:26:57;17.50;99.90
17762;DHT22;9005;48.838;10.112;2023-07-02T09:29:26;17.50;99.90
17762;DHT22;9005;48.838;10.112;2023-07-02T09:31:53;17.50;99.90
17762;DHT22;9005;48.838;10.112;2023-07-02T09:34:27;17.60;99.90
17762;DHT22;9005;48.838;10.112;2023-07-02T09:36:55;17.70;99.90
17762;DHT22;9005;48.838;10.112;2023-07-02T09:39:25;17.70;99.90
17762;DHT22;9005;48.838;10.112;2023-07-02T09:41:53;17.80;99.90
17762;DHT22;9005;48.838;10.112;2023-07-02T09:44:20;18.00;99.90
17762;DHT22;9005;48.838;10.112;2023-07-02T09:46:55;18.20;99.90
17762;DHT22;9005;48.838;10.112;2023-07-02T09:49:23;18.30;99.90
17762;DHT22;9005;48.838;10.112;2023-07-02T09:51:51;18.50;99.90
17762;DHT22;9005;48.838;10.112;2023-07-02T09:54:20;18.60;99.90
17762;DHT22;9005;48.838;10.112;2023-07-02T09:56:47;18.50;99.90
17762;DHT22;9005;48.838;10.112;2023-07-02T09:59:14;18.40;99.90
17762;DHT22;9005;48.838;10.112;2023-07-02T10:01:41;18.30;99.90
17762;DHT22;9005;48.838;10.112;2023-07-02T10:04:12;18.30;99.90
17762;DHT22;9005;48.838;10.112;2023-07-02T10:06:46;18.20;99.90
17762;DHT22;9005;48.838;10.112;2023-07-02T10:09:13;18.20;99.90
17762;DHT22;9005;48.838;10.112;2023-07-02T10:11:42;18.30;99.90
17762;DHT22;9005;48.838;10.112;2023-07-02T10:14:09;18.30;99.90
17762;DHT22;9005;48.838;10.112;2023-07-02T10:16:48;18.40;99.90
17762;DHT22;9005;48.838;10.112;2023-07-02T10:19:15;18.60;99.90
17762;DHT22;9005;48.838;10.112;2023-07-02T10:21:42;18.60;99.90
17762;DHT22;9005;48.838;10.112;2023-07-02T10:24:12;18.70;99.80
17762;DHT22;9005;48.838;10.112;2023-07-02T10:26:39;18.80;99.90
17762;DHT22;9005;48.838;10.112;2023-07-02T10:29:07;18.90;99.90
17762;DHT22;9005;48.838;10.112;2023-07-02T10:31:34;19.10;99.70
17762;DHT22;9005;48.838;10.112;2023-07-02T10:34:02;19.30;98.90
17762;DHT22;9005;48.838;10.112;2023-07-02T10:36:29;19.40;97.90
17762;DHT22;9005;48.838;10.112;2023-07-02T10:39:01;19.30;98.60
17762;DHT22;9005;48.838;10.112;2023-07-02T10:41:30;19.30;98.70
17762;DHT22;9005;48.838;10.112;2023-07-02T10:44:07;19.60;96.50
17762;DHT22;9005;48.838;10.112;2023-07-02T10:46:34;20.30;93.10
17762;DHT22;9005;48.838;10.112;2023-07-02T10:49:01;21.00;90.90
17762;DHT22;9005;48.838;10.112;2023-07-02T10:51:28;21.30;87.40
17762;DHT22;9005;48.838;10.112;2023-07-02T10:53:58;21.20;83.00
17762;DHT22;9005;48.838;10.112;2023-07-02T10:56:25;21.30;79.90
17762;DHT22;9005;48.838;10.112;2023-07-02T10:58:53;21.40;81.40
17762;DHT22;9005;48.838;10.112;2023-07-02T11:01:26;21.50;79.30
17762;DHT22;9005;48.838;10.112;2023-07-02T11:03:57;21.30;75.80
17762;DHT22;9005;48.838;10.112;2023-07-02T11:06:25;21.30;76.70
17762;DHT22;9005;48.838;10.112;2023-07-02T11:08:52;21.50;70.70
17762;DHT22;9005;48.838;10.112;2023-07-02T11:11:20;21.60;70.50
17762;DHT22;9005;48.838;10.112;2023-07-02T11:13:48;21.90;65.90
17762;DHT22;9005;48.838;10.112;2023-07-02T11:16:23;22.50;67.40
17762;DHT22;9005;48.838;10.112;2023-07-02T11:18:53;22.70;65.10
17762;DHT22;9005;48.838;10.112;2023-07-02T11:21:20;22.50;62.00
17762;DHT22;9005;48.838;10.112;2023-07-02T11:23:47;22.10;65.50
17762;DHT22;9005;48.838;10.112;2023-07-02T11:26:14;22.10;64.50
17762;DHT22;9005;48.838;10.112;2023-07-02T11:28:50;22.40;62.90
17762;DHT22;9005;48.838;10.112;2023-07-02T11:31:26;22.70;64.10
17762;DHT22;9005;48.838;10.112;2023-07-02T11:33:55;22.90;60.30
17762;DHT22;9005;48.838;10.112;2023-07-02T11:36:22;22.80;59.30
17762;DHT22;9005;48.838;10.112;2023-07-02T11:38:50;22.40;60.70
17762;DHT22;9005;48.838;10.112;2023-07-02T11:41:18;22.10;60.30
17762;DHT22;9005;48.838;10.112;2023-07-02T11:43:45;21.70;61.20
17762;DHT22;9005;48.838;10.112;2023-07-02T11:46:13;21.40;62.10
17762;DHT22;9005;48.838;10.112;2023-07-02T11:48:40;21.90;70.00
17762;DHT22;9005;48.838;10.112;2023-07-02T11:51:08;22.60;63.40
17762;DHT22;9005;48.838;10.112;2023-07-02T11:53:34;22.60;63.00
17762;DHT22;9005;48.838;10.112;2023-07-02T11:56:01;23.00;64.30
17762;DHT22;9005;48.838;10.112;2023-07-02T11:58:28;23.40;58.30
17762;DHT22;9005;48.838;10.112;2023-07-02T12:00:55;23.70;57.50
17762;DHT22;9005;48.838;10.112;2023-07-02T12:03:22;23.60;58.70
17762;DHT22;9005;48.838;10.112;2023-07-02T12:05:49;23.70;56.90
17762;DHT22;9005;48.838;10.112;2023-07-02T12:08:17;23.60;57.70
17762;DHT22;9005;48.838;10.112;2023-07-02T12:13:11;23.00;57.80
17762;DHT22;9005;48.838;10.112;2023-07-02T12:15:38;22.70;58.70
17762;DHT22;9005;48.838;10.112;2023-07-02T12:18:05;22.90;57.30
17762;DHT22;9005;48.838;10.112;2023-07-02T12:20:32;23.20;59.40
17762;DHT22;9005;48.838;10.112;2023-07-02T12:22:59;23.80;55.60
17762;DHT22;9005;48.838;10.112;2023-07-02T12:25:27;24.50;54.70
17762;DHT22;9005;48.838;10.112;2023-07-02T12:27:54;25.20;59.60
17762;DHT22;9005;48.838;10.112;2023-07-02T12:30:20;25.40;54.70
17762;DHT22;9005;48.838;10.112;2023-07-02T12:32:47;25.40;46.50
17762;DHT22;9005;48.838;10.112;2023-07-02T12:35:14;25.10;50.00
17762;DHT22;9005;48.838;10.112;2023-07-02T12:37:44;25.10;43.20
17762;DHT22;9005;48.838;10.112;2023-07-02T12:40:12;24.90;45.40
17762;DHT22;9005;48.838;10.112;2023-07-02T12:42:41;24.90;45.60
17762;DHT22;9005;48.838;10.112;2023-07-02T12:45:09;25.00;48.50
17762;DHT22;9005;48.838;10.112;2023-07-02T12:47:36;24.50;46.30
17762;DHT22;9005;48.838;10.112;2023-07-02T12:50:04;25.10;46.20
17762;DHT22;9005;48.838;10.112;2023-07-02T12:52:30;25.40;47.00
17762;DHT22;9005;48.838;10.112;2023-07-02T12:54:57;25.70;44.60
17762;DHT22;9005;48.838;10.112;2023-07-02T12:57:24;26.00;42.40
17762;DHT22;9005;48.838;10.112;2023-07-02T12:59:53;25.30;42.80
17762;DHT22;9005;48.838;10.112;2023-07-02T13:02:20;25.10;44.00
17762;DHT22;9005;48.838;10.112;2023-07-02T13:04:46;25.60;43.20
17762;DHT22;9005;48.838;10.112;2023-07-02T13:07:13;25.30;42.70
17762;DHT22;9005;48.838;10.112;2023-07-02T13:09:40;25.20;43.30
17762;DHT22;9005;48.838;10.112;2023-07-02T13:12:08;25.70;40.20
17762;DHT22;9005;48.838;10.112;2023-07-02T13:14:35;26.40;42.00
17762;DHT22;9005;48.838;10.112;2023-07-02T13:17:03;26.70;34.50
17762;DHT22;9005;48.838;10.112;2023-07-02T13:19:31;26.20;36.00
17762;DHT22;9005;48.838;10.112;2023-07-02T13:21:57;26.10;34.00
17762;DHT22;9005;48.838;10.112;2023-07-02T13:24:24;25.70;35.70
17762;DHT22;9005;48.838;10.112;2023-07-02T13:26:51;25.70;37.10
17762;DHT22;9005;48.838;10.112;2023-07-02T13:29:18;25.80;35.70
17762;DHT22;9005;48.838;10.112;2023-07-02T13:31:44;25.80;37.60
17762;DHT22;9005;48.838;10.112;2023-07-02T13:34:13;26.10;36.40
17762;DHT22;9005;48.838;10.112;2023-07-02T13:36:39;26.10;35.40
17762;DHT22;9005;48.838;10.112;2023-07-02T13:39:06;25.70;37.60
17762;DHT22;9005;48.838;10.112;2023-07-02T13:41:33;25.30;37.20
17762;DHT22;9005;48.838;10.112;2023-07-02T13:43:59;25.40;36.30
17762;DHT22;9005;48.838;10.112;2023-07-02T13:46:26;25.60;35.10
17762;DHT22;9005;48.838;10.112;2023-07-02T13:48:53;25.80;34.50
17762;DHT22;9005;48.838;10.112;2023-07-02T13:51:21;26.00;33.60
17762;DHT22;9005;48.838;10.112;2023-07-02T13:53:48;26.50;32.20
17762;DHT22;9005;48.838;10.112;2023-07-02T13:56:15;27.80;32.90
17762;DHT22;9005;48.838;10.112;2023-07-02T13:59:04;26.40;33.90
17762;DHT22;9005;48.838;10.112;2023-07-02T14:01:31;26.60;32.80
17762;DHT22;9005;48.838;10.112;2023-07-02T14:03:59;26.50;38.60
17762;DHT22;9005;48.838;10.112;2023-07-02T14:06:26;26.20;41.10
17762;DHT22;9005;48.838;10.112;2023-07-02T14:08:53;26.50;39.40
17762;DHT22;9005;48.838;10.112;2023-07-02T14:11:20;26.70;39.40
17762;DHT22;9005;48.838;10.112;2023-07-02T14:13:47;26.20;39.70
17762;DHT22;9005;48.838;10.112;2023-07-02T14:16:16;26.50;38.20
17762;DHT22;9005;48.838;10.112;2023-07-02T14:18:42;26.40;32.20
17762;DHT22;9005;48.838;10.112;2023-07-02T14:21:09;26.50;32.60
17762;DHT22;9005;48.838;10.112;2023-07-02T14:23:36;26.90;30.00
17762;DHT22;9005;48.838;10.112;2023-07-02T14:26:03;26.60;29.10
17762;DHT22;9005;48.838;10.112;2023-07-02T14:28:30;26.20;31.10
17762;DHT22;9005;48.838;10.112;2023-07-02T14:33:26;26.00;31.10
17762;DHT22;9005;48.838;10.112;2023-07-02T14:35:53;25.60;31.80
17762;DHT22;9005;48.838;10.112;2023-07-02T14:38:20;26.00;35.60
17762;DHT22;9005;48.838;10.112;2023-07-02T14:40:48;26.60;29.40
17762;DHT22;9005;48.838;10.112;2023-07-02T14:43:15;26.30;29.70
17762;DHT22;9005;48.838;10.112;2023-07-02T14:45:44;26.00;30.00
17762;DHT22;9005;48.838;10.112;2023-07-02T14:48:11;25.60;29.80
17762;DHT22;9005;48.838;10.112;2023-07-02T14:50:44;25.40;31.00
17762;DHT22;9005;48.838;10.112;2023-07-02T14:53:11;25.10;30.40
17762;DHT22;9005;48.838;10.112;2023-07-02T14:55:39;25.20;31.60
17762;DHT22;9005;48.838;10.112;2023-07-02T14:58:06;25.50;30.80
17762;DHT22;9005;48.838;10.112;2023-07-02T15:00:33;26.10;29.50
17762;DHT22;9005;48.838;10.112;2023-07-02T15:03:01;26.40;30.40
17762;DHT22;9005;48.838;10.112;2023-07-02T15:05:27;27.00;29.70
17762;DHT22;9005;48.838;10.112;2023-07-02T15:07:55;27.60;27.00
17762;DHT22;9005;48.838;10.112;2023-07-02T15:10:22;27.60;26.20
17762;DHT22;9005;48.838;10.112;2023-07-02T15:12:49;27.20;26.40
17762;DHT22;9005;48.838;10.112;2023-07-02T15:15:16;27.00;28.00
17762;DHT22;9005;48.838;10.112;2023-07-02T15:17:43;26.90;26.90
17762;DHT22;9005;48.838;10.112;2023-07-02T15:20:11;27.00;27.60
17762;DHT22;9005;48.838;10.112;2023-07-02T15:22:37;27.40;25.70
17762;DHT22;9005;48.838;10.112;2023-07-02T15:25:07;27.50;24.70
17762;DHT22;9005;48.838;10.112;2023-07-02T15:27:33;27.20;23.80
17762;DHT22;9005;48.838;10.112;2023-07-02T15:30:00;26.80;24.90
17762;DHT22;9005;48.838;10.112;2023-07-02T15:32:27;26.80;25.10
17762;DHT22;9005;48.838;10.112;2023-07-02T15:34:54;26.60;26.30
17762;DHT22;9005;48.838;10.112;2023-07-02T15:37:22;26.60;26.50
17762;DHT22;9005;48.838;10.112;2023-07-02T15:39:49;26.90;26.40
17762;DHT22;9005;48.838;10.112;2023-07-02T15:42:17;27.10;25.10
17762;DHT22;9005;48.838;10.112;2023-07-02T15:44:44;27.40;24.00
17762;DHT22;9005;48.838;10.112;2023-07-02T15:47:11;27.20;23.90
17762;DHT22;9005;48.838;10.112;2023-07-02T15:49:39;27.10;24.30
17762;DHT22;9005;48.838;10.112;2023-07-02T15:52:06;26.80;23.90
17762;DHT22;9005;48.838;10.112;2023-07-02T15:54:33;26.70;25.90
17762;DHT22;9005;48.838;10.112;2023-07-02T15:57:00;26.80;26.40
17762;DHT22;9005;48.838;10.112;2023-07-02T15:59:28;27.40;24.90
17762;DHT22;9005;48.838;10.112;2023-07-02T16:01:54;27.40;25.20
17762;DHT22;9005;48.838;10.112;2023-07-02T16:04:21;27.50;24.00
17762;DHT22;9005;48.838;10.112;2023-07-02T16:06:48;27.50;23.50
17762;DHT22;9005;48.838;10.112;2023-07-02T16:09:15;27.40;24.10
17762;DHT22;9005;48.838;10.112;2023-07-02T16:11:41;27.40;25.60
17762;DHT22;9005;48.838;10.112;2023-07-02T16:14:09;27.90;23.80
17762;DHT22;9005;48.838;10.112;2023-07-02T16:16:38;27.90;23.10
17762;DHT22;9005;48.838;10.112;2023-07-02T16:19:07;27.80;24.70
17762;DHT22;9005;48.838;10.112;2023-07-02T16:21:34;27.80;23.90
17762;DHT22;9005;48.838;10.112;2023-07-02T16:24:03;27.80;22.30